sensor_id;sensor_type;location;lat;lon;timestamp;temperature;humidity
16995;DHT22;8614;48.522;9.206;2023-04-25T00:00:55;8.30;99.90
16995;DHT22;8614;48.522;9.206;2023-04-25T00:03:23;8.30;99.90
16995;DHT22;8614;48.522;9.206;2023-04-25T00:05:50;8.30;99.90
16995;DHT22;8614;48.522;9.206;2023-04-25T00:08:18;8.30;99.90
16995;DHT22;8614;48.522;9.206;2023-04-25T00:10:45;8.20;99.90
16995;DHT22;8614;48.522;9.206;2023-04-25T00:13:13;8.20;99.90
16995;DHT22;8614;48.522;9.206;2023-04-25T00:15:40;8.20;99.90
16995;DHT22;8614;48.522;9.206;2023-04-25T00:18:07;8.20;99.90
16995;DHT22;8614;48.522;9.206;2023-04-25T00:20:35;8.30;99.90
16995;DHT22;8614;48.522;9.206;2023-04-25T00:23:02;8.30;99.90
16995;DHT22;8614;48.522;9.206;2023-04-25T00:25:29;8.30;99.90
16995;DHT22;8614;48.522;9.206;2023-04-25T00:27:55;8.30;99.90
16995;DHT22;8614;48.522;9.206;2023-04-25T00:30:24;8.30;99.90
16995;DHT22;8614;48.522;9.206;2023-04-25T00:32:50;8.40;99.90
16995;DHT22;8614;48.522;9.206;2023-04-25T00:35:17;8.40;99.90
16995;DHT22;8614;48.522;9.206;2023-04-25T00:37:44;8.40;99.90
16995;DHT22;8614;48.522;9.206;2023-04-25T00:40:11;8.40;99.90
16995;DHT22;8614;48.522;9.206;2023-04-25T00:42:39;8.50;99.90
16995;DHT22;8614;48.522;9.206;2023-04-25T00:45:07;8.50;99.90
16995;DHT22;8614;48.522;9.206;2023-04-25T00:47:37;8.50;99.90
16995;DHT22;8614;48.522;9.206;2023-04-25T00:50:05;8.50;99.90
16995;DHT22;8614;48.522;9.206;2023-04-25T00:52:32;8.50;99.90
16995;DHT22;8614;48.522;9.206;2023-04-25T00:54:59;8.50;99.90
16995;DHT22;8614;48.522;9.206;2023-04-25T00:57:26;8.50;99.90
16995;DHT22;8614;48.522;9.206;2023-04-25T00:59:54;8.50;99.90
16995;DHT22;8614;48.522;9.206;2023-04-25T01:02:21;8.50;99.90
16995;DHT22;8614;48.522;9.206;2023-04-25T01:04:49;8.50;99.90
16995;DHT22;8614;48.522;9.206;2023-04-25T01:07:16;8.50;99.90
16995;DHT22;8614;48.522;9.206;2023-04-25T01:09:43;8.50;99.90
16995;DHT22;8614;48.522;9.206;2023-04-25T01:12:10;8.50;99.90
16995;DHT22;8614;48.522;9.206;2023-04-25T01:14:38;8.50;99.90
16995;DHT22;8614;48.522;9.206;2023-04-25T01:17:05;8.50;99.90
16995;DHT22;8614;48.522;9.206;2023-04-25T01:19:33;8.50;99.90
16995;DHT22;8614;48.522;9.206;2023-04-25T01:22:02;8.50;99.90
16995;DHT22;8614;48.522;9.206;2023-04-25T01:24:31;8.50;99.90
16995;DHT22;8614;48.522;9.206;2023-04-25T01:26:58;8.40;99.90
16995;DHT22;8614;48.522;9.206;2023-04-25T01:29:27;8.40;99.90
16995;DHT22;8614;48.522;9.206;2023-04-25T01:31:55;8.50;99.90
16995;DHT22;8614;48.522;9.206;2023-04-25T01:34:24;8.40;99.90
16995;DHT22;8614;48.522;9.206;2023-04-25T01:36:51;8.50;99.90
16995;DHT22;8614;48.522;9.206;2023-04-25T01:39:19;8.40;99.90
16995;DHT22;8614;48.522;9.206;2023-04-25T01:41:47;8.50;99.90
16995;DHT22;8614;48.522;9.206;2023-04-25T01:44:14;8.40;99.90
16995;DHT22;8614;48.522;9.206;2023-04-25T01:46:42;8.40;99.90
16995;DHT22;8614;48.522;9.206;2023-04-25T01:49:10;8.40;99.90
16995;DHT22;8614;48.522;9.206;2023-04-25T01:51:38;8.40;99.90
16995;DHT22;8614;48.522;9.206;2023-04-25T01:54:05;8.40;99.90
16995;DHT22;8614;48.522;9.206;2023-04-25T01:56:37;8.40;99.90
16995;DHT22;8614;48.522;9.206;2023-04-25T01:59:06;8.50;99.90
16995;DHT22;8614;48.522;9.206;2023-04-25T02:01:35;8.50;99.90
16995;DHT22;8614;48.522;9.206;2023-04-25T02:04:20;8.50;99.90
16995;DHT22;8614;48.522;9.206;2023-04-25T02:06:47;8.50;99.90
16995;DHT22;8614;48.522;9.206;2023-04-25T02:09:14;8.50;99.90
16995;DHT22;8614;48.522;9.206;2023-04-25T02:11:47;8.50;99.90
16995;DHT22;8614;48.522;9.206;2023-04-25T02:14:25;8.50;99.90
16995;DHT22;8614;48.522;9.206;2023-04-25T02:16:58;8.50;99.90
16995;DHT22;8614;48.522;9.206;2023-04-25T02:19:25;8.50;99.90
16995;DHT22;8614;48.522;9.206;2023-04-25T02:21:52;8.50;99.90
16995;DHT22;8614;48.522;9.206;2023-04-25T02:24:19;8.50;99.90
16995;DHT22;8614;48.522;9.206;2023-04-25T02:26:47;8.40;99.90
16995;DHT22;8614;48.522;9.206;2023-04-25T02:29:15;8.40;99.90
16995;DHT22;8614;48.522;9.206;2023-04-25T02:31:42;8.40;99.90
16995;DHT22;8614;48.522;9.206;2023-04-25T02:34:09;8.40;99.90
16995;DHT22;8614;48.522;9.206;2023-04-25T02:36:37;8.40;99.90
16995;DHT22;8614;48.522;9.206;2023-04-25T02:39:04;8.30;99.90
16995;DHT22;8614;48.522;9.206;2023-04-25T02:41:31;8.30;99.90
16995;DHT22;8614;48.522;9.206;2023-04-25T02:43:59;8.30;99.90
16995;DHT22;8614;48.522;9.206;2023-04-25T02:46:26;8.30;99.90
16995;DHT22;8614;48.522;9.206;2023-04-25T02:48:52;8.20;99.90
16995;DHT22;8614;48.522;9.206;2023-04-25T02:51:19;8.20;99.90
16995;DHT22;8614;48.522;9.206;2023-04-25T02:53:46;8.20;99.90
16995;DHT22;8614;48.522;9.206;2023-04-25T02:56:13;8.20;99.90
16995;DHT22;8614;48.522;9.206;2023-04-25T02:58:40;8.10;99.90
16995;DHT22;8614;48.522;9.206;2023-04-25T03:01:08;8.10;99.90
16995;DHT22;8614;48.522;9.206;2023-04-25T03:03:34;8.10;99.90
16995;DHT22;8614;48.522;9.206;2023-04-25T03:06:01;8.10;99.90
16995;DHT22;8614;48.522;9.206;2023-04-25T03:08:32;8.00;99.90
16995;DHT22;8614;48.522;9.206;2023-04-25T03:11:01;8.00;99.90
16995;DHT22;8614;48.522;9.206;2023-04-25T03:13:28;8.00;99.90
16995;DHT22;8614;48.522;9.206;2023-04-25T03:15:56;8.00;99.90
16995;DHT22;8614;48.522;9.206;2023-04-25T03:18:24;7.90;99.90
16995;DHT22;8614;48.522;9.206;2023-04-25T03:20:53;7.90;99.90
16995;DHT22;8614;48.522;9.206;2023-04-25T03:23:20;7.80;99.90
16995;DHT22;8614;48.522;9.206;2023-04-25T03:25:47;7.80;99.90
16995;DHT22;8614;48.522;9.206;2023-04-25T03:28:14;7.80;99.90
16995;DHT22;8614;48.522;9.206;2023-04-25T03:30:41;7.80;99.90
16995;DHT22;8614;48.522;9.206;2023-04-25T03:33:09;7.70;99.90
16995;DHT22;8614;48.522;9.206;2023-04-25T03:35:37;7.80;99.90
16995;DHT22;8614;48.522;9.206;2023-04-25T03:38:04;7.80;99.90
16995;DHT22;8614;48.522;9.206;2023-04-25T03:40:35;7.80;99.90
16995;DHT22;8614;48.522;9.206;2023-04-25T03:43:11;7.90;99.90
16995;DHT22;8614;48.522;9.206;2023-04-25T03:45:41;7.90;99.90
16995;DHT22;8614;48.522;9.206;2023-04-25T03:48:08;7.90;99.90
16995;DHT22;8614;48.522;9.206;2023-04-25T03:50:36;7.90;99.90
16995;DHT22;8614;48.522;9.206;2023-04-25T03:53:04;7.90;99.90
16995;DHT22;8614;48.522;9.206;2023-04-25T03:55:51;7.90;99.90
16995;DHT22;8614;48.522;9.206;2023-04-25T03:58:18;7.90;99.90
16995;DHT22;8614;48.522;9.206;2023-04-25T04:00:46;7.90;99.90
16995;DHT22;8614;48.522;9.206;2023-04-25T04:03:12;7.90;99.90
16995;DHT22;8614;48.522;9.206;2023-04-25T04:05:40;7.90;99.90
16995;DHT22;8614;48.522;9.206;2023-04-25T04:08:08;7.90;99.90
16995;DHT22;8614;48.522;9.206;2023-04-25T04:10:37;7.80;99.90
16995;DHT22;8614;48.522;9.206;2023-04-25T04:13:04;7.90;99.90
16995;DHT22;8614;48.522;9.206;2023-04-25T04:15:32;7.80;99.90
16995;DHT22;8614;48.522;9.206;2023-04-25T04:17:59;7.80;99.90
16995;DHT22;8614;48.522;9.206;2023-04-25T04:20:28;7.80;99.90
16995;DHT22;8614;48.522;9.206;2023-04-25T04:22:57;7.80;99.90
16995;DHT22;8614;48.522;9.206;2023-04-25T04:25:24;7.80;99.90
16995;DHT22;8614;48.522;9.206;2023-04-25T04:28:03;7.80;99.90
16995;DHT22;8614;48.522;9.206;2023-04-25T04:30:50;7.70;99.90
16995;DHT22;8614;48.522;9.206;2023-04-25T04:33:18;7.70;99.90
16995;DHT22;8614;48.522;9.206;2023-04-25T04:35:47;7.70;99.90
16995;DHT22;8614;48.522;9.206;2023-04-25T04:38:17;7.80;99.90
16995;DHT22;8614;48.522;9.206;2023-04-25T04:40:44;7.80;99.90
16995;DHT22;8614;48.522;9.206;2023-04-25T04:43:23;7.80;99.90
16995;DHT22;8614;48.522;9.206;2023-04-25T04:45:53;7.80;99.90
16995;DHT22;8614;48.522;9.206;2023-04-25T04:48:39;7.90;99.90
16995;DHT22;8614;48.522;9.206;2023-04-25T04:51:18;7.90;99.90
16995;DHT22;8614;48.522;9.206;2023-04-25T04:54:06;7.90;99.90
16995;DHT22;8614;48.522;9.206;2023-04-25T04:57:00;7.90;99.90
16995;DHT22;8614;48.522;9.206;2023-04-25T04:59:46;7.90;99.90
16995;DHT22;8614;48.522;9.206;2023-04-25T05:02:32;8.00;99.90
16995;DHT22;8614;48.522;9.206;2023-04-25T05:05:28;7.90;99.90
16995;DHT22;8614;48.522;9.206;2023-04-25T05:08:29;7.90;99.90
16995;DHT22;8614;48.522;9.206;2023-04-25T05:11:16;8.00;99.90
16995;DHT22;8614;48.522;9.206;2023-04-25T05:14:04;8.20;99.90
16995;DHT22;8614;48.522;9.206;2023-04-25T05:16:48;8.20;99.90
16995;DHT22;8614;48.522;9.206;2023-04-25T05:19:31;8.20;99.90
16995;DHT22;8614;48.522;9.206;2023-04-25T05:22:17;8.20;99.90
16995;DHT22;8614;48.522;9.206;2023-04-25T05:24:59;8.20;99.90
16995;DHT22;8614;48.522;9.206;2023-04-25T05:27:55;8.20;99.90
16995;DHT22;8614;48.522;9.206;2023-04-25T05:30:39;8.20;99.90
16995;DHT22;8614;48.522;9.206;2023-04-25T05:33:16;8.20;99.90
16995;DHT22;8614;48.522;9.206;2023-04-25T05:35:44;8.30;99.90
16995;DHT22;8614;48.522;9.206;2023-04-25T05:38:11;8.40;99.90
16995;DHT22;8614;48.522;9.206;2023-04-25T05:41:04;8.40;99.90
16995;DHT22;8614;48.522;9.206;2023-04-25T05:43:49;8.40;99.90
16995;DHT22;8614;48.522;9.206;2023-04-25T05:46:31;8.60;99.90
16995;DHT22;8614;48.522;9.206;2023-04-25T05:49:22;8.70;99.90
16995;DHT22;8614;48.522;9.206;2023-04-25T05:52:15;8.90;99.90
16995;DHT22;8614;48.522;9.206;2023-04-25T05:55:10;9.20;99.90
16995;DHT22;8614;48.522;9.206;2023-04-25T05:57:39;9.30;99.90
16995;DHT22;8614;48.522;9.206;2023-04-25T06:00:10;9.40;99.90
16995;DHT22;8614;48.522;9.206;2023-04-25T06:02:40;9.50;99.90
16995;DHT22;8614;48.522;9.206;2023-04-25T06:05:08;9.70;99.90
16995;DHT22;8614;48.522;9.206;2023-04-25T06:07:35;9.90;99.90
16995;DHT22;8614;48.522;9.206;2023-04-25T06:10:03;10.10;99.90
16995;DHT22;8614;48.522;9.206;2023-04-25T06:12:31;10.40;99.90
16995;DHT22;8614;48.522;9.206;2023-04-25T06:14:58;10.50;99.90
16995;DHT22;8614;48.522;9.206;2023-04-25T06:17:27;10.60;99.90
16995;DHT22;8614;48.522;9.206;2023-04-25T06:19:54;10.70;99.90
16995;DHT22;8614;48.522;9.206;2023-04-25T06:22:20;10.60;99.90
16995;DHT22;8614;48.522;9.206;2023-04-25T06:24:47;10.50;99.90
16995;DHT22;8614;48.522;9.206;2023-04-25T06:27:14;10.40;99.90
16995;DHT22;8614;48.522;9.206;2023-04-25T06:29:41;10.40;99.90
16995;DHT22;8614;48.522;9.206;2023-04-25T06:32:08;10.30;99.90
16995;DHT22;8614;48.522;9.206;2023-04-25T06:34:36;10.20;99.90
16995;DHT22;8614;48.522;9.206;2023-04-25T06:37:05;10.10;99.90
16995;DHT22;8614;48.522;9.206;2023-04-25T06:39:31;10.10;99.90
16995;DHT22;8614;48.522;9.206;2023-04-25T06:41:58;10.00;99.90
16995;DHT22;8614;48.522;9.206;2023-04-25T06:44:54;9.90;99.90
16995;DHT22;8614;48.522;9.206;2023-04-25T06:47:21;9.90;99.90
16995;DHT22;8614;48.522;9.206;2023-04-25T06:49:50;9.80;99.90
16995;DHT22;8614;48.522;9.206;2023-04-25T06:52:17;9.80;99.90
16995;DHT22;8614;48.522;9.206;2023-04-25T06:54:45;9.70;99.90
16995;DHT22;8614;48.522;9.206;2023-04-25T06:57:23;9.70;99.90
16995;DHT22;8614;48.522;9.206;2023-04-25T06:59:50;9.70;99.90
16995;DHT22;8614;48.522;9.206;2023-04-25T07:02:17;9.70;99.90
16995;DHT22;8614;48.522;9.206;2023-04-25T07:04:44;9.60;99.90
16995;DHT22;8614;48.522;9.206;2023-04-25T07:07:13;9.60;99.90
16995;DHT22;8614;48.522;9.206;2023-04-25T07:09:48;9.60;99.90
16995;DHT22;8614;48.522;9.206;2023-04-25T07:12:15;9.70;99.90
16995;DHT22;8614;48.522;9.206;2023-04-25T07:14:43;9.70;99.90
16995;DHT22;8614;48.522;9.206;2023-04-25T07:17:11;9.70;99.90
16995;DHT22;8614;48.522;9.206;2023-04-25T07:19:38;9.70;99.90
16995;DHT22;8614;48.522;9.206;2023-04-25T07:22:07;9.70;99.90
16995;DHT22;8614;48.522;9.206;2023-04-25T07:24:38;9.70;99.90
16995;DHT22;8614;48.522;9.206;2023-04-25T07:27:05;9.70;99.90
16995;DHT22;8614;48.522;9.206;2023-04-25T07:29:41;9.70;99.90
16995;DHT22;8614;48.522;9.206;2023-04-25T07:32:08;9.70;99.90
16995;DHT22;8614;48.522;9.206;2023-04-25T07:34:37;9.70;99.90
16995;DHT22;8614;48.522;9.206;2023-04-25T07:37:04;9.70;99.90
16995;DHT22;8614;48.522;9.206;2023-04-25T07:39:40;9.70;99.90
16995;DHT22;8614;48.522;9.206;2023-04-25T07:42:08;9.70;99.90
16995;DHT22;8614;48.522;9.206;2023-04-25T07:44:36;9.80;99.90
16995;DHT22;8614;48.522;9.206;2023-04-25T07:47:05;9.90;99.90
16995;DHT22;8614;48.522;9.206;2023-04-25T07:49:33;9.80;99.90
16995;DHT22;8614;48.522;9.206;2023-04-25T07:52:01;9.80;99.90
16995;DHT22;8614;48.522;9.206;2023-04-25T07:54:28;9.90;99.90
16995;DHT22;8614;48.522;9.206;2023-04-25T07:57:02;9.90;99.90
16995;DHT22;8614;48.522;9.206;2023-04-25T07:59:30;9.80;99.90
16995;DHT22;8614;48.522;9.206;2023-04-25T08:02:00;9.70;99.90
16995;DHT22;8614;48.522;9.206;2023-04-25T08:04:28;9.70;99.90
16995;DHT22;8614;48.522;9.206;2023-04-25T08:07:00;9.70;99.90
16995;DHT22;8614;48.522;9.206;2023-04-25T08:09:31;9.60;99.90
16995;DHT22;8614;48.522;9.206;2023-04-25T08:12:03;9.50;99.90
16995;DHT22;8614;48.522;9.206;2023-04-25T08:14:32;9.40;99.90
16995;DHT22;8614;48.522;9.206;2023-04-25T08:17:02;9.20;99.90
16995;DHT22;8614;48.522;9.206;2023-04-25T08:19:31;9.20;99.90
16995;DHT22;8614;48.522;9.206;2023-04-25T08:21:58;9.10;99.90
16995;DHT22;8614;48.522;9.206;2023-04-25T08:24:34;9.10;99.90
16995;DHT22;8614;48.522;9.206;2023-04-25T08:27:03;9.10;99.90
16995;DHT22;8614;48.522;9.206;2023-04-25T08:29:30;9.00;99.90
16995;DHT22;8614;48.522;9.206;2023-04-25T08:31:57;9.00;99.90
16995;DHT22;8614;48.522;9.206;2023-04-25T08:34:24;8.90;99.90
16995;DHT22;8614;48.522;9.206;2023-04-25T08:36:52;8.80;99.90
16995;DHT22;8614;48.522;9.206;2023-04-25T08:39:26;8.70;99.90
16995;DHT22;8614;48.522;9.206;2023-04-25T08:42:24;8.70;99.90
16995;DHT22;8614;48.522;9.206;2023-04-25T08:44:53;8.60;99.90
16995;DHT22;8614;48.522;9.206;2023-04-25T08:47:24;8.60;99.90
16995;DHT22;8614;48.522;9.206;2023-04-25T08:49:56;8.50;99.90
16995;DHT22;8614;48.522;9.206;2023-04-25T08:52:28;8.50;99.90
16995;DHT22;8614;48.522;9.206;2023-04-25T08:54:57;8.50;99.90
16995;DHT22;8614;48.522;9.206;2023-04-25T08:57:29;8.50;99.90
16995;DHT22;8614;48.522;9.206;2023-04-25T09:00:10;8.60;99.90
16995;DHT22;8614;48.522;9.206;2023-04-25T09:03:23;8.60;99.90
16995;DHT22;8614;48.522;9.206;2023-04-25T09:06:43;8.60;99.90
16995;DHT22;8614;48.522;9.206;2023-04-25T09:16:59;8.70;99.90
16995;DHT22;8614;48.522;9.206;2023-04-25T09:19:37;8.80;99.90
16995;DHT22;8614;48.522;9.206;2023-04-25T09:22:12;8.90;99.90
16995;DHT22;8614;48.522;9.206;2023-04-25T09:24:40;9.00;99.90
16995;DHT22;8614;48.522;9.206;2023-04-25T09:27:11;9.10;99.90
16995;DHT22;8614;48.522;9.206;2023-04-25T09:29:40;9.00;99.90
16995;DHT22;8614;48.522;9.206;2023-04-25T09:32:18;8.90;99.90
16995;DHT22;8614;48.522;9.206;2023-04-25T09:34:47;8.80;99.90
16995;DHT22;8614;48.522;9.206;2023-04-25T09:37:20;8.80;99.90
16995;DHT22;8614;48.522;9.206;2023-04-25T09:40:08;8.70;99.90
16995;DHT22;8614;48.522;9.206;2023-04-25T09:42:49;8.80;99.90
16995;DHT22;8614;48.522;9.206;2023-04-25T09:45:16;8.80;99.90
16995;DHT22;8614;48.522;9.206;2023-04-25T09:47:45;8.90;99.90
16995;DHT22;8614;48.522;9.206;2023-04-25T09:50:21;8.90;99.90
16995;DHT22;8614;48.522;9.206;2023-04-25T09:53:02;8.80;99.90
16995;DHT22;8614;48.522;9.206;2023-04-25T09:55:35;8.70;99.90
16995;DHT22;8614;48.522;9.206;2023-04-25T09:58:04;8.60;99.90
16995;DHT22;8614;48.522;9.206;2023-04-25T10:00:33;8.60;99.90
16995;DHT22;8614;48.522;9.206;2023-04-25T10:03:12;8.60;99.90
16995;DHT22;8614;48.522;9.206;2023-04-25T10:05:57;8.70;99.90
16995;DHT22;8614;48.522;9.206;2023-04-25T10:08:27;8.80;99.90
16995;DHT22;8614;48.522;9.206;2023-04-25T10:10:57;8.80;99.90
16995;DHT22;8614;48.522;9.206;2023-04-25T10:13:25;8.90;99.90
16995;DHT22;8614;48.522;9.206;2023-04-25T10:18:58;8.80;99.90
16995;DHT22;8614;48.522;9.206;2023-04-25T10:21:27;8.70;99.90
16995;DHT22;8614;48.522;9.206;2023-04-25T10:23:56;8.70;99.90
16995;DHT22;8614;48.522;9.206;2023-04-25T10:26:23;8.70;99.90
16995;DHT22;8614;48.522;9.206;2023-04-25T10:28:58;8.70;99.90
16995;DHT22;8614;48.522;9.206;2023-04-25T10:31:26;8.70;99.90
16995;DHT22;8614;48.522;9.206;2023-04-25T10:33:53;8.60;99.90
16995;DHT22;8614;48.522;9.206;2023-04-25T10:36:22;8.50;99.90
16995;DHT22;8614;48.522;9.206;2023-04-25T10:38:50;8.50;99.90
16995;DHT22;8614;48.522;9.206;2023-04-25T10:41:19;8.50;99.90
16995;DHT22;8614;48.522;9.206;2023-04-25T10:43:47;8.50;99.90
16995;DHT22;8614;48.522;9.206;2023-04-25T10:46:18;8.50;99.90
16995;DHT22;8614;48.522;9.206;2023-04-25T10:48:47;8.60;99.90
16995;DHT22;8614;48.522;9.206;2023-04-25T10:51:20;8.60;99.90
16995;DHT22;8614;48.522;9.206;2023-04-25T10:53:57;8.80;99.90
16995;DHT22;8614;48.522;9.206;2023-04-25T10:56:26;8.70;99.90
16995;DHT22;8614;48.522;9.206;2023-04-25T10:59:04;8.80;99.90
16995;DHT22;8614;48.522;9.206;2023-04-25T11:01:37;8.80;99.90
16995;DHT22;8614;48.522;9.206;2023-04-25T11:04:04;8.90;99.90
16995;DHT22;8614;48.522;9.206;2023-04-25T11:06:41;8.90;99.90
16995;DHT22;8614;48.522;9.206;2023-04-25T11:09:12;8.80;99.90
16995;DHT22;8614;48.522;9.206;2023-04-25T11:11:39;8.90;99.90
16995;DHT22;8614;48.522;9.206;2023-04-25T11:14:06;8.80;99.90
16995;DHT22;8614;48.522;9.206;2023-04-25T11:16:33;8.80;99.90
16995;DHT22;8614;48.522;9.206;2023-04-25T11:19:01;8.80;99.90
16995;DHT22;8614;48.522;9.206;2023-04-25T11:21:29;8.90;99.90
16995;DHT22;8614;48.522;9.206;2023-04-25T11:23:57;9.00;99.90
16995;DHT22;8614;48.522;9.206;2023-04-25T11:26:25;9.10;99.90
16995;DHT22;8614;48.522;9.206;2023-04-25T11:28:57;9.30;99.90
16995;DHT22;8614;48.522;9.206;2023-04-25T11:31:24;9.30;99.90
16995;DHT22;8614;48.522;9.206;2023-04-25T11:33:53;9.30;99.90
16995;DHT22;8614;48.522;9.206;2023-04-25T11:36:20;9.00;99.90
16995;DHT22;8614;48.522;9.206;2023-04-25T11:38:46;9.10;99.90
16995;DHT22;8614;48.522;9.206;2023-04-25T11:41:13;9.30;99.90
16995;DHT22;8614;48.522;9.206;2023-04-25T11:43:43;9.40;99.90
16995;DHT22;8614;48.522;9.206;2023-04-25T11:46:10;9.50;99.90
16995;DHT22;8614;48.522;9.206;2023-04-25T11:48:38;9.60;99.90
16995;DHT22;8614;48.522;9.206;2023-04-25T11:51:05;9.70;99.90
16995;DHT22;8614;48.522;9.206;2023-04-25T11:53:31;9.70;99.90
16995;DHT22;8614;48.522;9.206;2023-04-25T11:55:58;9.60;99.90
16995;DHT22;8614;48.522;9.206;2023-04-25T11:58:26;9.70;99.90
16995;DHT22;8614;48.522;9.206;2023-04-25T12:00:54;9.80;99.90
16995;DHT22;8614;48.522;9.206;2023-04-25T12:03:24;9.90;99.90
16995;DHT22;8614;48.522;9.206;2023-04-25T12:05:52;10.10;99.90
16995;DHT22;8614;48.522;9.206;2023-04-25T12:08:19;10.20;99.90
16995;DHT22;8614;48.522;9.206;2023-04-25T12:10:46;10.30;99.90
16995;DHT22;8614;48.522;9.206;2023-04-25T12:13:21;10.60;99.90
16995;DHT22;8614;48.522;9.206;2023-04-25T12:15:48;10.80;99.90
16995;DHT22;8614;48.522;9.206;2023-04-25T12:18:19;11.10;99.90
16995;DHT22;8614;48.522;9.206;2023-04-25T12:20:46;11.20;99.90
16995;DHT22;8614;48.522;9.206;2023-04-25T12:23:12;10.90;99.90
16995;DHT22;8614;48.522;9.206;2023-04-25T12:25:40;10.50;99.90
16995;DHT22;8614;48.522;9.206;2023-04-25T12:28:16;10.30;99.90
16995;DHT22;8614;48.522;9.206;2023-04-25T12:30:55;10.10;99.90
16995;DHT22;8614;48.522;9.206;2023-04-25T12:33:24;9.90;99.90
16995;DHT22;8614;48.522;9.206;2023-04-25T12:35:52;9.80;99.90
16995;DHT22;8614;48.522;9.206;2023-04-25T12:38:23;9.80;99.90
16995;DHT22;8614;48.522;9.206;2023-04-25T12:40:50;9.80;99.90
16995;DHT22;8614;48.522;9.206;2023-04-25T12:43:17;9.90;99.90
16995;DHT22;8614;48.522;9.206;2023-04-25T12:45:44;9.70;99.90
16995;DHT22;8614;48.522;9.206;2023-04-25T12:48:11;9.70;99.90
16995;DHT22;8614;48.522;9.206;2023-04-25T12:50:39;9.80;99.90
16995;DHT22;8614;48.522;9.206;2023-04-25T12:53:06;9.90;99.90
16995;DHT22;8614;48.522;9.206;2023-04-25T12:55:33;9.90;99.90
16995;DHT22;8614;48.522;9.206;2023-04-25T12:58:00;10.10;99.90
16995;DHT22;8614;48.522;9.206;2023-04-25T13:00:28;10.20;99.90
16995;DHT22;8614;48.522;9.206;2023-04-25T13:02:55;10.10;99.90
16995;DHT22;8614;48.522;9.206;2023-04-25T13:05:22;10.10;99.90
16995;DHT22;8614;48.522;9.206;2023-04-25T13:07:50;10.10;99.90
16995;DHT22;8614;48.522;9.206;2023-04-25T13:10:17;10.00;99.90
16995;DHT22;8614;48.522;9.206;2023-04-25T13:12:44;10.00;99.90
16995;DHT22;8614;48.522;9.206;2023-04-25T13:15:11;9.90;99.90
16995;DHT22;8614;48.522;9.206;2023-04-25T13:17:38;9.90;99.90
16995;DHT22;8614;48.522;9.206;2023-04-25T13:20:06;9.90;99.90
16995;DHT22;8614;48.522;9.206;2023-04-25T13:22:35;9.80;99.90
16995;DHT22;8614;48.522;9.206;2023-04-25T13:25:05;9.70;99.90
16995;DHT22;8614;48.522;9.206;2023-04-25T13:27:33;9.80;99.90
16995;DHT22;8614;48.522;9.206;2023-04-25T13:30:03;9.80;99.90
16995;DHT22;8614;48.522;9.206;2023-04-25T13:32:32;9.90;99.90
16995;DHT22;8614;48.522;9.206;2023-04-25T13:35:02;9.80;99.90
16995;DHT22;8614;48.522;9.206;2023-04-25T13:37:29;9.80;99.90
16995;DHT22;8614;48.522;9.206;2023-04-25T13:39:56;9.60;99.90
16995;DHT22;8614;48.522;9.206;2023-04-25T13:42:24;9.70;99.90
16995;DHT22;8614;48.522;9.206;2023-04-25T13:44:51;9.70;99.90
16995;DHT22;8614;48.522;9.206;2023-04-25T13:47:19;9.80;99.90
16995;DHT22;8614;48.522;9.206;2023-04-25T13:49:46;10.10;99.90
16995;DHT22;8614;48.522;9.206;2023-04-25T13:52:12;10.30;99.90
16995;DHT22;8614;48.522;9.206;2023-04-25T13:54:39;10.50;99.90
16995;DHT22;8614;48.522;9.206;2023-04-25T13:57:06;10.70;99.90
16995;DHT22;8614;48.522;9.206;2023-04-25T13:59:34;10.80;99.90
16995;DHT22;8614;48.522;9.206;2023-04-25T14:02:01;10.80;99.90
16995;DHT22;8614;48.522;9.206;2023-04-25T14:04:28;10.90;99.90
16995;DHT22;8614;48.522;9.206;2023-04-25T14:06:55;10.90;99.90
16995;DHT22;8614;48.522;9.206;2023-04-25T14:09:22;11.10;99.90
16995;DHT22;8614;48.522;9.206;2023-04-25T14:11:51;11.30;99.90
16995;DHT22;8614;48.522;9.206;2023-04-25T14:14:18;11.60;99.90
16995;DHT22;8614;48.522;9.206;2023-04-25T14:16:46;11.80;99.90
16995;DHT22;8614;48.522;9.206;2023-04-25T14:19:13;11.70;99.90
16995;DHT22;8614;48.522;9.206;2023-04-25T14:21:40;11.70;99.90
16995;DHT22;8614;48.522;9.206;2023-04-25T14:24:07;11.70;99.90
16995;DHT22;8614;48.522;9.206;2023-04-25T14:26:34;11.70;99.90
16995;DHT22;8614;48.522;9.206;2023-04-25T14:29:02;12.00;99.90
16995;DHT22;8614;48.522;9.206;2023-04-25T14:31:29;11.90;99.90
16995;DHT22;8614;48.522;9.206;2023-04-25T14:33:57;11.80;99.90
16995;DHT22;8614;48.522;9.206;2023-04-25T14:36:23;11.80;99.90
16995;DHT22;8614;48.522;9.206;2023-04-25T14:38:52;11.60;99.90
16995;DHT22;8614;48.522;9.206;2023-04-25T14:41:18;11.60;99.90
16995;DHT22;8614;48.522;9.206;2023-04-25T14:43:45;11.50;99.90
16995;DHT22;8614;48.522;9.206;2023-04-25T14:46:12;11.60;99.90
16995;DHT22;8614;48.522;9.206;2023-04-25T14:48:39;11.60;99.90
16995;DHT22;8614;48.522;9.206;2023-04-25T14:51:07;11.70;99.90
16995;DHT22;8614;48.522;9.206;2023-04-25T14:53:34;11.60;99.90
16995;DHT22;8614;48.522;9.206;2023-04-25T14:56:01;11.50;99.90
16995;DHT22;8614;48.522;9.206;2023-04-25T14:58:28;11.40;99.90
16995;DHT22;8614;48.522;9.206;2023-04-25T15:00:55;11.40;99.90
16995;DHT22;8614;48.522;9.206;2023-04-25T15:03:22;11.30;99.90
16995;DHT22;8614;48.522;9.206;2023-04-25T15:05:49;11.20;99.90
16995;DHT22;8614;48.522;9.206;2023-04-25T15:08:17;11.10;99.90
16995;DHT22;8614;48.522;9.206;2023-04-25T15:10:45;10.90;99.90
16995;DHT22;8614;48.522;9.206;2023-04-25T15:13:12;10.90;99.90
16995;DHT22;8614;48.522;9.206;2023-04-25T15:15:39;10.90;99.90
16995;DHT22;8614;48.522;9.206;2023-04-25T15:18:06;10.90;99.90
16995;DHT22;8614;48.522;9.206;2023-04-25T15:20:32;10.80;99.90
16995;DHT22;8614;48.522;9.206;2023-04-25T15:23:00;10.90;99.90
16995;DHT22;8614;48.522;9.206;2023-04-25T15:25:30;10.80;99.90
16995;DHT22;8614;48.522;9.206;2023-04-25T15:27:56;10.70;99.90
16995;DHT22;8614;48.522;9.206;2023-04-25T15:30:23;10.70;99.90
16995;DHT22;8614;48.522;9.206;2023-04-25T15:32:50;10.80;99.90
16995;DHT22;8614;48.522;9.206;2023-04-25T15:35:17;10.90;99.90
16995;DHT22;8614;48.522;9.206;2023-04-25T15:37:44;11.00;99.90
16995;DHT22;8614;48.522;9.206;2023-04-25T15:40:13;11.00;99.90
16995;DHT22;8614;48.522;9.206;2023-04-25T15:42:43;11.00;99.90
16995;DHT22;8614;48.522;9.206;2023-04-25T15:45:13;11.00;99.90
16995;DHT22;8614;48.522;9.206;2023-04-25T15:47:42;11.00;99.90
16995;DHT22;8614;48.522;9.206;2023-04-25T15:50:10;11.00;99.90
16995;DHT22;8614;48.522;9.206;2023-04-25T15:52:37;11.10;99.90
16995;DHT22;8614;48.522;9.206;2023-04-25T15:55:05;11.10;99.90
16995;DHT22;8614;48.522;9.206;2023-04-25T15:57:34;11.20;99.90
16995;DHT22;8614;48.522;9.206;2023-04-25T16:00:04;11.10;99.90
16995;DHT22;8614;48.522;9.206;2023-04-25T16:02:37;11.00;99.90
16995;DHT22;8614;48.522;9.206;2023-04-25T16:05:04;11.10;99.90
16995;DHT22;8614;48.522;9.206;2023-04-25T16:07:31;11.00;99.90
16995;DHT22;8614;48.522;9.206;2023-04-25T16:09:58;11.10;99.90
16995;DHT22;8614;48.522;9.206;2023-04-25T16:12:25;11.20;99.90
16995;DHT22;8614;48.522;9.206;2023-04-25T16:14:53;11.30;99.90
16995;DHT22;8614;48.522;9.206;2023-04-25T16:17:21;11.30;99.90
16995;DHT22;8614;48.522;9.206;2023-04-25T16:19:47;11.30;99.90
16995;DHT22;8614;48.522;9.206;2023-04-25T16:22:15;11.20;99.90
16995;DHT22;8614;48.522;9.206;2023-04-25T16:24:42;11.10;99.90
16995;DHT22;8614;48.522;9.206;2023-04-25T16:27:09;11.00;99.90